createdAt,value
2022-12-22T00:01:38.094Z,18.00
2022-12-22T00:04:27.707Z,15.85
2022-12-22T00:07:13.796Z,16.23
2022-12-22T00:09:59.829Z,15.48
2022-12-22T00:12:47.929Z,15.40
2022-12-22T00:15:35.681Z,15.27
2022-12-22T00:18:22.395Z,15.50
2022-12-22T00:21:08.591Z,16.27
2022-12-22T00:23:54.439Z,15.55
2022-12-22T00:26:40.611Z,14.70
2022-12-22T00:29:33.512Z,13.88
2022-12-22T00:32:20.044Z,13.45
2022-12-22T00:35:06.687Z,13.32
2022-12-22T00:37:53.843Z,13.73
2022-12-22T00:40:47.232Z,14.82
2022-12-22T00:43:33.866Z,13.27
2022-12-22T00:46:23.013Z,13.55
2022-12-22T00:49:09.831Z,13.75
2022-12-22T00:51:55.526Z,13.10
2022-12-22T00:54:42.141Z,13.10
2022-12-22T00:57:34.982Z,13.27
2022-12-22T01:00:21.245Z,13.88
2022-12-22T01:03:09.123Z,13.25
2022-12-22T01:05:55.057Z,13.18
2022-12-22T01:08:40.712Z,12.82
2022-12-22T01:11:26.818Z,12.57
2022-12-22T01:14:12.890Z,13.82
2022-12-22T01:16:58.880Z,14.63
2022-12-22T01:19:46.341Z,14.23
2022-12-22T01:22:36.362Z,13.75
2022-12-22T01:25:30.561Z,13.18
2022-12-22T01:28:16.531Z,14.23
2022-12-22T01:31:04.437Z,13.27
2022-12-22T01:33:55.096Z,13.52
2022-12-22T01:36:43.091Z,13.05
2022-12-22T01:39:32.697Z,13.80
2022-12-22T01:42:24.211Z,14.10
2022-12-22T01:45:10.013Z,14.03
2022-12-22T01:47:56.567Z,13.13
2022-12-22T01:50:47.909Z,12.15
2022-12-22T01:53:38.934Z,13.68
2022-12-22T01:56:26.515Z,13.23
2022-12-22T01:59:18.951Z,13.35
2022-12-22T02:02:05.312Z,14.57
2022-12-22T02:04:56.439Z,13.20
2022-12-22T02:07:57.164Z,13.57
2022-12-22T02:11:07.639Z,14.27
2022-12-22T02:14:29.696Z,13.90
2022-12-22T02:17:26.041Z,12.75
2022-12-22T02:20:34.917Z,14.23
2022-12-22T02:23:33.631Z,13.52
2022-12-22T02:26:38.912Z,12.05
2022-12-22T02:29:26.453Z,13.10
2022-12-22T02:32:18.267Z,13.25
2022-12-22T02:35:05.558Z,15.38
2022-12-22T02:38:01.325Z,17.52
2022-12-22T02:40:54.273Z,15.25
2022-12-22T02:44:01.498Z,14.48
2022-12-22T02:46:53.818Z,16.92
2022-12-22T02:49:46.650Z,16.48
2022-12-22T02:52:36.729Z,17.65
2022-12-22T02:55:24.413Z,19.20
2022-12-22T02:58:10.744Z,14.55
2022-12-22T03:00:58.901Z,15.00
2022-12-22T03:03:45.060Z,14.63
2022-12-22T03:06:30.632Z,14.27
2022-12-22T03:09:16.160Z,13.25
2022-12-22T03:12:01.685Z,13.38
2022-12-22T03:14:47.474Z,13.25
2022-12-22T03:17:34.727Z,13.23
2022-12-22T03:20:20.881Z,14.15
2022-12-22T03:23:06.469Z,13.10
2022-12-22T03:25:54.245Z,12.38
2022-12-22T03:28:24.339Z,13.63
2022-12-22T03:30:57.730Z,13.55
2022-12-22T03:33:29.599Z,12.93
2022-12-22T03:35:58.756Z,13.73
2022-12-22T03:38:27.602Z,12.55
2022-12-22T03:40:56.130Z,14.00
2022-12-22T03:43:42.860Z,13.35
2022-12-22T03:46:30.589Z,13.02
2022-12-22T03:49:13.145Z,13.68
2022-12-22T03:51:45.092Z,12.90
2022-12-22T03:54:15.289Z,12.82
2022-12-22T03:56:44.461Z,13.48
2022-12-22T03:59:13.563Z,13.27
2022-12-22T04:01:43.551Z,14.10
2022-12-22T04:04:15.185Z,12.93
2022-12-22T04:06:44.082Z,12.73
2022-12-22T04:09:12.719Z,13.05
2022-12-22T04:11:59.621Z,12.93
2022-12-22T04:14:33.994Z,13.93
2022-12-22T04:17:03.499Z,12.40
2022-12-22T04:19:33.810Z,12.45
2022-12-22T04:22:02.851Z,12.52
2022-12-22T04:24:31.311Z,12.77
2022-12-22T04:26:59.608Z,12.65
2022-12-22T04:29:27.940Z,11.85
2022-12-22T04:31:56.577Z,11.50
2022-12-22T04:34:24.902Z,12.32
2022-12-22T04:36:54.889Z,13.13
2022-12-22T04:39:23.334Z,12.82
2022-12-22T04:41:52.168Z,12.57
2022-12-22T04:44:20.452Z,13.95
2022-12-22T04:46:48.809Z,12.70
2022-12-22T04:49:17.414Z,13.05
2022-12-22T04:51:45.709Z,13.35
2022-12-22T04:54:16.730Z,13.25
2022-12-22T04:56:45.548Z,13.57
2022-12-22T04:59:14.033Z,12.80
2022-12-22T05:01:42.645Z,13.60
2022-12-22T05:04:11.281Z,12.68
2022-12-22T05:06:40.521Z,12.70
2022-12-22T05:09:08.844Z,13.00
2022-12-22T05:11:39.094Z,12.15
2022-12-22T05:14:07.682Z,13.00
2022-12-22T05:16:36.366Z,13.23
2022-12-22T05:19:05.107Z,13.23
2022-12-22T05:21:33.561Z,13.10
2022-12-22T05:24:02.056Z,14.13
2022-12-22T05:26:30.455Z,13.02
2022-12-22T05:29:00.103Z,13.30
2022-12-22T05:31:29.368Z,14.05
2022-12-22T05:33:58.106Z,17.40
2022-12-22T05:36:26.416Z,16.10
2022-12-22T05:38:54.932Z,14.38
2022-12-22T05:41:24.113Z,14.18
2022-12-22T05:43:52.950Z,12.65
2022-12-22T05:46:23.783Z,13.95
2022-12-22T05:48:52.159Z,12.73
2022-12-22T05:51:20.490Z,12.75
2022-12-22T05:53:48.921Z,13.32
2022-12-22T05:56:17.249Z,13.60
2022-12-22T05:58:45.877Z,13.30
2022-12-22T06:01:14.208Z,13.70
2022-12-22T06:03:44.545Z,13.13
2022-12-22T06:06:12.990Z,12.60
2022-12-22T06:08:41.317Z,13.32
2022-12-22T06:11:09.853Z,12.88
2022-12-22T06:13:38.366Z,13.25
2022-12-22T06:16:07.041Z,13.15
2022-12-22T06:18:35.553Z,12.88
2022-12-22T06:21:05.696Z,13.70
2022-12-22T06:23:34.419Z,12.60
2022-12-22T06:26:03.683Z,12.93
2022-12-22T06:28:32.750Z,13.75
2022-12-22T06:31:01.352Z,15.60
2022-12-22T06:33:29.799Z,14.85
2022-12-22T06:35:59.495Z,14.10
2022-12-22T06:38:30.010Z,15.68
2022-12-22T06:40:58.519Z,13.48
2022-12-22T06:43:26.349Z,14.10
2022-12-22T06:45:55.057Z,14.68
2022-12-22T06:48:24.241Z,14.70
2022-12-22T06:50:53.194Z,14.32
2022-12-22T06:53:21.658Z,15.75
2022-12-22T06:55:51.416Z,15.20
2022-12-22T06:58:19.782Z,16.40
2022-12-22T07:00:49.953Z,15.68
2022-12-22T07:03:18.470Z,13.15
2022-12-22T07:05:47.030Z,13.48
2022-12-22T07:08:15.411Z,14.45
2022-12-22T07:11:01.660Z,14.23
2022-12-22T07:13:37.739Z,16.85
2022-12-22T07:16:08.416Z,17.02
2022-12-22T07:18:38.630Z,16.55
2022-12-22T07:21:08.811Z,16.60
2022-12-22T07:23:37.642Z,16.95
2022-12-22T07:26:06.778Z,16.75
2022-12-22T07:28:39.057Z,16.25
2022-12-22T07:33:36.031Z,15.60
2022-12-22T07:36:07.149Z,16.67
2022-12-22T07:38:37.902Z,16.08
2022-12-22T07:41:28.179Z,15.70
2022-12-22T07:43:58.431Z,16.63
2022-12-22T07:46:28.916Z,15.20
2022-12-22T07:49:15.076Z,16.67
2022-12-22T07:51:44.438Z,16.85
2022-12-22T07:54:15.363Z,17.40
2022-12-22T07:56:45.646Z,15.80
2022-12-22T07:59:16.103Z,16.40
2022-12-22T08:01:45.777Z,15.25
2022-12-22T08:04:15.688Z,16.80
2022-12-22T08:06:44.269Z,16.85
2022-12-22T08:09:16.283Z,16.25
2022-12-22T08:11:44.895Z,16.40
2022-12-22T08:14:13.496Z,16.25
2022-12-22T08:16:43.669Z,15.85
2022-12-22T08:19:12.547Z,16.27
2022-12-22T08:21:44.223Z,16.98
2022-12-22T08:24:18.711Z,15.63
2022-12-22T08:26:50.857Z,16.30
2022-12-22T08:29:23.099Z,15.60
2022-12-22T08:32:13.548Z,15.25
2022-12-22T08:34:45.374Z,15.35
2022-12-22T08:37:18.135Z,14.38
2022-12-22T08:39:49.870Z,14.40
2022-12-22T08:42:20.106Z,15.90
2022-12-22T08:44:53.394Z,16.08
2022-12-22T08:47:25.009Z,15.88
2022-12-22T08:49:53.444Z,16.45
2022-12-22T08:52:21.920Z,15.00
2022-12-22T08:54:50.515Z,16.33
2022-12-22T08:57:19.062Z,17.48
2022-12-22T08:59:48.308Z,16.13
2022-12-22T09:02:16.926Z,17.15
2022-12-22T09:04:47.210Z,16.73
2022-12-22T09:07:16.214Z,15.98
2022-12-22T09:09:44.914Z,16.40
2022-12-22T09:12:13.319Z,15.65
2022-12-22T09:14:41.893Z,16.38
2022-12-22T09:17:10.344Z,21.88
2022-12-22T09:19:38.842Z,22.00
2022-12-22T09:22:09.546Z,19.77
2022-12-22T09:24:38.032Z,21.67
2022-12-22T09:27:06.786Z,20.55
2022-12-22T09:29:35.300Z,20.40
2022-12-22T09:32:04.167Z,21.00
2022-12-22T09:34:32.976Z,21.05
2022-12-22T09:37:01.619Z,17.33
2022-12-22T09:39:32.174Z,17.83
2022-12-22T09:42:02.159Z,18.05
2022-12-22T09:44:34.756Z,17.48
2022-12-22T09:47:05.934Z,17.27
2022-12-22T09:49:34.730Z,16.38
2022-12-22T09:52:05.753Z,16.50
2022-12-22T09:54:35.785Z,15.80
2022-12-22T09:57:07.989Z,16.15
2022-12-22T10:02:18.638Z,16.30
2022-12-22T10:05:18.941Z,17.55
2022-12-22T10:07:47.763Z,16.30
2022-12-22T10:10:25.494Z,17.05
2022-12-22T10:12:56.530Z,17.13
2022-12-22T10:15:26.028Z,18.52
2022-12-22T10:18:09.205Z,16.77
2022-12-22T10:20:40.019Z,15.55
2022-12-22T10:23:18.620Z,15.13
2022-12-22T10:28:59.836Z,15.68
2022-12-22T10:31:29.843Z,16.23
2022-12-22T10:34:11.961Z,15.05
2022-12-22T10:36:42.429Z,14.55
2022-12-22T10:39:13.254Z,19.42
2022-12-22T10:41:46.066Z,16.70
2022-12-22T10:44:24.327Z,17.20
2022-12-22T10:46:54.526Z,16.63
2022-12-22T10:49:25.955Z,17.63
2022-12-22T10:51:57.190Z,15.38
2022-12-22T10:54:34.268Z,16.60
2022-12-22T10:57:08.074Z,16.60
2022-12-22T10:59:49.352Z,17.05
2022-12-22T11:02:38.237Z,16.75
2022-12-22T11:05:09.993Z,16.08
2022-12-22T11:07:40.975Z,16.63
2022-12-22T11:10:18.685Z,15.82
2022-12-22T11:13:12.041Z,15.60
2022-12-22T11:15:46.750Z,14.57
2022-12-22T11:18:28.046Z,14.95
2022-12-22T11:21:02.637Z,13.90
2022-12-22T11:23:38.205Z,13.65
2022-12-22T11:26:15.215Z,13.50
2022-12-22T11:29:15.443Z,14.27
2022-12-22T11:31:58.875Z,14.15
2022-12-22T11:34:43.778Z,12.98
2022-12-22T11:37:27.663Z,13.13
2022-12-22T11:40:05.164Z,14.25
2022-12-22T11:42:48.831Z,13.57
2022-12-22T11:45:41.033Z,13.07
2022-12-22T11:48:36.407Z,13.60
2022-12-22T11:51:11.713Z,14.75
2022-12-22T11:54:14.248Z,15.18
2022-12-22T11:56:46.361Z,18.03
2022-12-22T11:59:31.385Z,19.20
2022-12-22T12:02:21.107Z,20.52
2022-12-22T12:05:12.719Z,17.48
2022-12-22T12:07:44.616Z,18.00
2022-12-22T12:12:54.186Z,16.13
2022-12-22T12:15:29.301Z,17.00
2022-12-22T12:18:32.344Z,16.33
2022-12-22T12:21:18.318Z,17.60
2022-12-22T12:24:03.199Z,19.45
2022-12-22T12:26:34.437Z,18.50
2022-12-22T12:29:12.763Z,17.23
2022-12-22T12:31:45.331Z,18.15
2022-12-22T12:34:18.493Z,18.95
2022-12-22T12:36:52.830Z,19.08
2022-12-22T12:39:30.694Z,18.08
2022-12-22T12:42:10.184Z,15.63
2022-12-22T12:44:39.797Z,16.10
2022-12-22T12:47:26.639Z,15.57
2022-12-22T12:50:01.071Z,17.23
2022-12-22T12:53:14.256Z,19.20
2022-12-22T12:56:10.601Z,18.92
2022-12-22T12:58:53.695Z,15.63
2022-12-22T13:01:57.247Z,14.57
2022-12-22T13:05:14.633Z,15.88
2022-12-22T13:08:14.647Z,13.55
2022-12-22T13:10:46.505Z,19.80
2022-12-22T13:13:53.671Z,25.27
2022-12-22T13:16:27.385Z,22.52
2022-12-22T13:19:00.151Z,23.92
2022-12-22T13:21:52.820Z,21.50
2022-12-22T13:24:31.056Z,21.83
2022-12-22T13:27:07.843Z,21.00
2022-12-22T13:29:45.416Z,17.90
2022-12-22T13:32:27.123Z,17.08
2022-12-22T13:35:30.489Z,17.45
2022-12-22T13:37:54.881Z,14.32
2022-12-22T13:40:26.185Z,16.45
2022-12-22T13:42:58.772Z,14.48
2022-12-22T13:45:37.783Z,13.82
2022-12-22T13:48:14.636Z,13.52
2022-12-22T13:50:46.763Z,14.02
2022-12-22T13:53:58.128Z,14.43
2022-12-22T13:56:16.253Z,16.70
2022-12-22T13:58:48.053Z,18.45
2022-12-22T14:01:19.564Z,18.15
2022-12-22T14:04:01.737Z,19.40
2022-12-22T14:06:33.150Z,19.15
2022-12-22T14:09:13.302Z,18.70
2022-12-22T14:11:51.021Z,19.10
2022-12-22T14:14:25.111Z,18.33
2022-12-22T14:16:56.693Z,16.00
2022-12-22T14:19:26.741Z,15.52
2022-12-22T14:22:05.070Z,14.70
2022-12-22T14:24:42.040Z,13.95
2022-12-22T14:27:20.557Z,12.60
2022-12-22T14:29:49.138Z,11.23
2022-12-22T14:32:34.793Z,12.35
2022-12-22T14:35:03.874Z,11.02
2022-12-22T14:37:33.308Z,11.43
2022-12-22T14:40:01.955Z,12.20
2022-12-22T14:42:33.669Z,10.27
2022-12-22T14:45:03.366Z,10.15
2022-12-22T14:47:31.775Z,11.90
2022-12-22T14:50:15.201Z,11.85
2022-12-22T14:52:46.849Z,12.13
2022-12-22T14:55:26.729Z,14.13
2022-12-22T14:57:59.787Z,17.60
2022-12-22T15:00:33.633Z,21.40
2022-12-22T15:03:04.515Z,21.20
2022-12-22T15:05:36.351Z,20.77
2022-12-22T15:13:20.143Z,15.50
2022-12-22T15:15:48.684Z,15.33
2022-12-22T15:18:17.390Z,14.02
2022-12-22T15:20:45.884Z,14.35
2022-12-22T15:23:17.163Z,14.30
2022-12-22T15:25:46.270Z,13.93
2022-12-22T15:28:16.074Z,14.52
2022-12-22T15:30:44.641Z,15.43
2022-12-22T15:33:15.427Z,17.13
2022-12-22T15:35:45.150Z,16.92
2022-12-22T15:38:15.866Z,14.80
2022-12-22T15:40:45.095Z,13.93
2022-12-22T15:43:55.647Z,14.05
2022-12-22T15:46:06.719Z,14.85
2022-12-22T15:48:37.581Z,13.43
2022-12-22T15:51:08.945Z,14.63
2022-12-22T15:53:38.564Z,15.20
2022-12-22T15:56:17.429Z,16.40
2022-12-22T15:58:48.337Z,14.77
2022-12-22T16:01:17.005Z,14.68
2022-12-22T16:03:45.662Z,15.00
2022-12-22T16:06:16.575Z,16.25
2022-12-22T16:08:49.778Z,14.93
2022-12-22T16:11:19.491Z,15.45
2022-12-22T16:13:50.658Z,16.90
2022-12-22T16:16:19.637Z,14.40
2022-12-22T16:18:48.225Z,22.25
2022-12-22T16:21:20.029Z,26.80
2022-12-22T16:26:20.566Z,26.25
2022-12-22T16:28:51.450Z,30.17
2022-12-22T16:31:22.825Z,30.52
2022-12-22T16:33:52.376Z,25.77
2022-12-22T16:36:21.180Z,18.77
2022-12-22T16:38:50.121Z,18.40
2022-12-22T16:41:24.521Z,23.23
2022-12-22T16:44:03.807Z,22.50
2022-12-22T16:46:38.055Z,26.55
2022-12-22T16:49:09.937Z,20.13
2022-12-22T16:54:17.354Z,19.45
2022-12-22T16:56:47.270Z,20.90
2022-12-22T16:59:17.761Z,16.50
2022-12-22T17:01:51.751Z,18.27
2022-12-22T17:04:24.536Z,16.30
2022-12-22T17:06:55.346Z,16.00
2022-12-22T17:09:27.411Z,15.15
2022-12-22T17:11:56.649Z,15.73
2022-12-22T17:14:32.736Z,14.70
2022-12-22T17:17:01.616Z,13.40
2022-12-22T17:19:30.270Z,13.90
2022-12-22T17:22:00.230Z,13.95
2022-12-22T17:24:29.538Z,15.75
2022-12-22T17:27:02.157Z,13.32
2022-12-22T17:29:32.463Z,14.35
2022-12-22T17:32:00.836Z,15.40
2022-12-22T17:34:29.508Z,15.13
2022-12-22T17:36:59.490Z,15.30
2022-12-22T17:39:28.502Z,15.50
2022-12-22T17:41:57.648Z,15.48
2022-12-22T17:44:28.253Z,16.08
2022-12-22T17:46:58.791Z,15.45
2022-12-22T17:49:27.506Z,16.42
2022-12-22T17:51:56.651Z,15.20
2022-12-22T17:54:27.520Z,14.93
2022-12-22T17:57:01.357Z,16.73
2022-12-22T17:59:30.240Z,16.42
2022-12-22T18:02:00.748Z,16.50
2022-12-22T18:04:29.530Z,16.88
2022-12-22T18:06:58.161Z,17.95
2022-12-22T18:09:27.971Z,19.55
2022-12-22T18:11:56.649Z,20.20
2022-12-22T18:14:25.186Z,23.60
2022-12-22T18:16:53.848Z,22.67
2022-12-22T18:19:23.701Z,20.15
2022-12-22T18:21:53.114Z,20.42
2022-12-22T18:24:21.553Z,19.45
2022-12-22T18:26:50.050Z,17.75
2022-12-22T18:29:19.245Z,18.70
2022-12-22T18:31:47.714Z,18.13
2022-12-22T18:34:16.251Z,17.70
2022-12-22T18:36:48.018Z,20.00
2022-12-22T18:39:19.213Z,18.63
2022-12-22T18:41:48.307Z,20.75
2022-12-22T18:44:17.450Z,20.73
2022-12-22T18:46:47.231Z,20.10
2022-12-22T18:49:16.123Z,19.17
2022-12-22T18:51:47.007Z,20.58
2022-12-22T18:54:24.169Z,18.67
2022-12-22T18:56:52.964Z,19.70
2022-12-22T18:59:26.272Z,23.73
2022-12-22T19:02:03.617Z,24.98
2022-12-22T19:04:32.466Z,23.95
2022-12-22T19:07:02.447Z,24.83
2022-12-22T19:09:31.186Z,28.15
2022-12-22T19:11:59.580Z,29.67
2022-12-22T19:14:28.208Z,33.25
2022-12-22T19:16:56.711Z,33.95
2022-12-22T19:19:25.104Z,35.10
2022-12-22T19:21:54.358Z,30.50
2022-12-22T19:24:24.095Z,28.23
2022-12-22T19:26:53.483Z,28.52
2022-12-22T19:29:22.281Z,30.88
2022-12-22T19:31:50.694Z,28.73
2022-12-22T19:34:21.693Z,27.65
2022-12-22T19:36:50.933Z,24.70
2022-12-22T19:39:19.448Z,24.70
2022-12-22T19:41:52.134Z,22.40
2022-12-22T19:44:23.570Z,23.38
2022-12-22T19:46:53.588Z,22.13
2022-12-22T19:49:24.389Z,21.20
2022-12-22T19:51:52.925Z,23.58
2022-12-22T19:54:21.376Z,22.20
2022-12-22T19:56:54.562Z,23.08
2022-12-22T19:59:35.694Z,27.20
2022-12-22T20:02:26.566Z,31.58
2022-12-22T20:04:56.735Z,33.65
2022-12-22T20:07:28.037Z,32.17
2022-12-22T20:09:56.743Z,34.70
2022-12-22T20:12:30.743Z,31.95
2022-12-22T20:14:59.176Z,30.65
2022-12-22T20:17:28.025Z,35.17
2022-12-22T20:19:56.298Z,31.80
2022-12-22T20:22:25.137Z,31.02
2022-12-22T20:24:55.215Z,25.92
2022-12-22T20:27:30.268Z,23.23
2022-12-22T20:29:58.918Z,22.13
2022-12-22T20:32:28.485Z,20.55
2022-12-22T20:34:57.390Z,19.80
2022-12-22T20:37:26.433Z,19.20
2022-12-22T20:39:54.977Z,17.65
2022-12-22T20:42:25.838Z,17.58
2022-12-22T20:45:03.813Z,16.73
2022-12-22T20:47:34.264Z,16.77
2022-12-22T20:50:02.885Z,17.05
2022-12-22T20:52:31.316Z,16.58
2022-12-22T20:54:59.868Z,15.80
2022-12-22T20:57:29.082Z,15.70
2022-12-22T20:59:58.941Z,14.32
2022-12-22T21:02:29.452Z,16.13
2022-12-22T21:04:58.547Z,15.87
2022-12-22T21:07:27.057Z,15.85
2022-12-22T21:09:55.574Z,15.45
2022-12-22T21:12:24.003Z,15.40
2022-12-22T21:14:53.731Z,15.30
2022-12-22T21:17:23.456Z,15.25
2022-12-22T21:19:52.819Z,15.07
2022-12-22T21:22:21.374Z,14.80
2022-12-22T21:24:49.850Z,15.50
2022-12-22T21:27:21.267Z,15.73
2022-12-22T21:29:49.644Z,15.20
2022-12-22T21:32:18.247Z,13.95
2022-12-22T21:34:48.094Z,14.15
2022-12-22T21:37:20.506Z,14.90
2022-12-22T21:39:49.402Z,14.93
2022-12-22T21:42:20.150Z,15.90
2022-12-22T21:44:48.727Z,15.02
2022-12-22T21:47:21.336Z,14.80
2022-12-22T21:49:51.132Z,14.85
2022-12-22T21:52:20.128Z,15.02
2022-12-22T21:54:48.514Z,15.68
2022-12-22T21:57:17.249Z,13.73
2022-12-22T21:59:45.796Z,22.38
2022-12-22T22:02:17.484Z,23.10
2022-12-22T22:07:25.439Z,24.73
2022-12-22T22:09:54.443Z,19.27
2022-12-22T22:12:37.324Z,17.88
2022-12-22T22:15:08.527Z,16.17
2022-12-22T22:17:37.399Z,18.40
2022-12-22T22:20:09.858Z,16.77
2022-12-22T22:22:39.503Z,16.77
2022-12-22T22:25:09.405Z,17.23
2022-12-22T22:27:41.804Z,15.55
2022-12-22T22:30:16.844Z,15.13
2022-12-22T22:32:45.771Z,16.25
2022-12-22T22:35:14.873Z,20.52
2022-12-22T22:37:45.861Z,14.63
2022-12-22T22:40:16.121Z,12.70
2022-12-22T22:42:44.586Z,11.52
2022-12-22T22:45:15.918Z,46.60
2022-12-22T22:47:44.401Z,13.38
2022-12-22T22:50:13.084Z,12.00
2022-12-22T22:52:41.667Z,11.15
2022-12-22T22:55:12.808Z,9.90
2022-12-22T22:57:41.321Z,11.32
2022-12-22T23:00:12.092Z,10.30
2022-12-22T23:02:41.006Z,9.88
2022-12-22T23:05:12.885Z,10.57
2022-12-22T23:07:43.987Z,11.40
2022-12-22T23:10:13.969Z,11.20
2022-12-22T23:12:42.355Z,10.40
2022-12-22T23:15:11.634Z,13.27
2022-12-22T23:17:40.298Z,13.38
2022-12-22T23:20:10.090Z,11.57
2022-12-22T23:22:38.966Z,14.60
2022-12-22T23:25:08.391Z,12.80
2022-12-22T23:27:38.398Z,11.80
2022-12-22T23:30:08.873Z,12.18
2022-12-22T23:32:37.351Z,14.13
2022-12-22T23:35:07.191Z,10.70
2022-12-22T23:37:35.557Z,13.82
2022-12-22T23:40:33.084Z,14.18
2022-12-22T23:42:57.021Z,11.00
2022-12-22T23:45:25.972Z,10.93
2022-12-22T23:47:54.475Z,11.68
2022-12-22T23:50:23.678Z,11.82
2022-12-22T23:52:52.843Z,10.18
2022-12-22T23:55:21.577Z,11.50
2022-12-22T23:57:51.836Z,11.18
